createdAt,value
2023-03-13T00:01:51.494Z,100.00
2023-03-13T00:04:18.659Z,100.00
2023-03-13T00:06:45.531Z,100.00
2023-03-13T00:09:14.605Z,100.00
2023-03-13T00:11:41.361Z,100.00
2023-03-13T00:14:08.526Z,100.00
2023-03-13T00:16:37.426Z,100.00
2023-03-13T00:19:05.926Z,100.00
2023-03-13T00:21:33.457Z,100.00
2023-03-13T00:24:00.561Z,100.00
2023-03-13T00:26:28.567Z,100.00
2023-03-13T00:28:55.719Z,100.00
2023-03-13T00:31:28.118Z,100.00
2023-03-13T00:33:58.584Z,100.00
2023-03-13T00:36:28.425Z,100.00
2023-03-13T00:38:56.686Z,100.00
2023-03-13T00:41:26.741Z,100.00
2023-03-13T00:43:53.888Z,100.00
2023-03-13T00:46:23.642Z,100.00
2023-03-13T00:48:51.176Z,100.00
2023-03-13T00:51:19.835Z,100.00
2023-03-13T00:53:48.472Z,100.00
2023-03-13T00:56:16.967Z,100.00
2023-03-13T00:58:45.528Z,100.00
2023-03-13T01:01:13.902Z,100.00
2023-03-13T01:03:42.681Z,100.00
2023-03-13T01:06:12.891Z,100.00
2023-03-13T01:08:39.905Z,100.00
2023-03-13T01:11:09.527Z,100.00
2023-03-13T01:13:36.921Z,100.00
2023-03-13T01:16:08.059Z,100.00
2023-03-13T01:18:36.034Z,100.00
2023-03-13T01:21:03.073Z,100.00
2023-03-13T01:23:30.144Z,100.00
2023-03-13T01:25:57.752Z,100.00
2023-03-13T01:28:26.281Z,100.00
2023-03-13T01:30:54.139Z,100.00
2023-03-13T01:33:20.721Z,100.00
2023-03-13T01:35:47.885Z,100.00
2023-03-13T01:38:14.905Z,100.00
2023-03-13T01:40:49.355Z,100.00
2023-03-13T01:43:26.384Z,100.00
2023-03-13T01:46:17.920Z,100.00
2023-03-13T01:49:23.574Z,100.00
2023-03-13T01:52:03.954Z,100.00
2023-03-13T01:54:40.549Z,100.00
2023-03-13T01:57:12.273Z,100.00
2023-03-13T01:59:47.474Z,100.00
2023-03-13T02:02:15.940Z,100.00
2023-03-13T02:04:46.786Z,100.00
2023-03-13T02:07:20.157Z,100.00
2023-03-13T02:09:52.192Z,100.00
2023-03-13T02:12:27.215Z,100.00
2023-03-13T02:14:55.283Z,100.00
2023-03-13T02:17:22.649Z,100.00
2023-03-13T02:19:52.120Z,100.00
2023-03-13T02:22:21.586Z,100.00
2023-03-13T02:24:58.555Z,100.00
2023-03-13T02:27:25.656Z,100.00
2023-03-13T02:29:53.156Z,100.00
2023-03-13T02:32:20.288Z,100.00
2023-03-13T02:34:50.073Z,100.00
2023-03-13T02:37:18.441Z,100.00
2023-03-13T02:39:50.179Z,100.00
2023-03-13T02:42:19.576Z,100.00
2023-03-13T02:44:48.040Z,100.00
2023-03-13T02:47:23.046Z,100.00
2023-03-13T02:49:51.100Z,100.00
2023-03-13T02:52:26.327Z,100.00
2023-03-13T02:54:58.795Z,100.00
2023-03-13T02:57:26.638Z,100.00
2023-03-13T02:59:53.222Z,100.00
2023-03-13T03:02:20.052Z,100.00
2023-03-13T03:04:46.779Z,100.00
2023-03-13T03:07:13.404Z,100.00
2023-03-13T03:09:40.278Z,100.00
2023-03-13T03:12:11.130Z,100.00
2023-03-13T03:14:38.538Z,100.00
2023-03-13T03:17:05.865Z,100.00
2023-03-13T03:19:32.548Z,100.00
2023-03-13T03:22:00.237Z,100.00
2023-03-13T03:24:27.337Z,100.00
2023-03-13T03:26:54.012Z,100.00
2023-03-13T03:29:25.670Z,100.00
2023-03-13T03:31:54.624Z,100.00
2023-03-13T03:34:21.440Z,100.00
2023-03-13T03:36:48.660Z,100.00
2023-03-13T03:39:15.432Z,100.00
2023-03-13T03:41:42.450Z,100.00
2023-03-13T03:44:10.572Z,100.00
2023-03-13T03:46:58.716Z,100.00
2023-03-13T03:49:28.133Z,100.00
2023-03-13T03:51:55.027Z,100.00
2023-03-13T03:54:29.291Z,100.00
2023-03-13T03:56:56.407Z,100.00
2023-03-13T03:59:23.063Z,100.00
2023-03-13T04:02:03.343Z,100.00
2023-03-13T04:04:31.712Z,100.00
2023-03-13T04:07:06.530Z,100.00
2023-03-13T04:09:34.277Z,100.00
2023-03-13T04:12:02.763Z,100.00
2023-03-13T04:14:34.197Z,100.00
2023-03-13T04:17:04.470Z,100.00
2023-03-13T04:19:31.204Z,100.00
2023-03-13T04:21:58.205Z,100.00
2023-03-13T04:24:24.990Z,100.00
2023-03-13T04:26:51.766Z,100.00
2023-03-13T04:29:20.160Z,100.00
2023-03-13T04:31:59.958Z,100.00
2023-03-13T04:34:42.995Z,100.00
2023-03-13T04:37:19.892Z,100.00
2023-03-13T04:40:21.784Z,100.00
2023-03-13T04:43:02.650Z,100.00
2023-03-13T04:45:48.291Z,100.00
2023-03-13T04:48:33.514Z,100.00
2023-03-13T04:51:18.446Z,100.00
2023-03-13T04:54:08.720Z,100.00
2023-03-13T04:56:58.880Z,100.00
2023-03-13T04:59:34.024Z,100.00
2023-03-13T05:02:00.701Z,100.00
2023-03-13T05:04:48.735Z,100.00
2023-03-13T05:07:28.585Z,100.00
2023-03-13T05:10:31.009Z,100.00
2023-03-13T05:13:16.281Z,100.00
2023-03-13T05:16:09.336Z,100.00
2023-03-13T05:18:57.886Z,100.00
2023-03-13T05:22:00.111Z,100.00
2023-03-13T05:24:47.045Z,100.00
2023-03-13T05:27:52.742Z,100.00
2023-03-13T05:30:52.761Z,100.00
2023-03-13T05:33:36.850Z,100.00
2023-03-13T05:36:11.656Z,100.00
2023-03-13T05:38:44.809Z,100.00
2023-03-13T05:41:34.508Z,100.00
2023-03-13T05:44:17.803Z,100.00
2023-03-13T05:47:04.244Z,100.00
2023-03-13T05:49:30.928Z,100.00
2023-03-13T05:52:06.784Z,100.00
2023-03-13T05:54:59.777Z,100.00
2023-03-13T05:57:52.427Z,100.00
2023-03-13T06:00:38.230Z,100.00
2023-03-13T06:03:24.858Z,100.00
2023-03-13T06:06:03.098Z,100.00
2023-03-13T06:08:37.522Z,100.00
2023-03-13T06:11:04.998Z,100.00
2023-03-13T06:13:33.069Z,100.00
2023-03-13T06:16:05.583Z,100.00
2023-03-13T06:18:45.792Z,100.00
2023-03-13T06:21:12.726Z,100.00
2023-03-13T06:23:39.387Z,100.00
2023-03-13T06:26:06.143Z,100.00
2023-03-13T06:28:32.990Z,100.00
2023-03-13T06:31:04.719Z,100.00
2023-03-13T06:33:31.657Z,100.00
2023-03-13T06:36:00.564Z,100.00
2023-03-13T06:38:28.247Z,100.00
2023-03-13T06:40:55.027Z,100.00
2023-03-13T06:43:21.803Z,100.00
2023-03-13T06:45:48.831Z,100.00
2023-03-13T06:48:15.382Z,100.00
2023-03-13T06:50:42.268Z,100.00
2023-03-13T06:53:16.708Z,100.00
2023-03-13T06:55:44.162Z,100.00
2023-03-13T06:58:21.857Z,100.00
2023-03-13T07:00:57.760Z,100.00
2023-03-13T07:03:24.737Z,100.00
2023-03-13T07:05:58.486Z,100.00
2023-03-13T07:08:25.964Z,99.92
2023-03-13T07:10:53.983Z,98.95
2023-03-13T07:13:21.871Z,96.80
2023-03-13T07:15:48.777Z,93.68
2023-03-13T07:18:16.036Z,92.35
2023-03-13T07:20:42.900Z,97.63
2023-03-13T07:23:09.768Z,100.00
2023-03-13T07:25:36.376Z,100.00
2023-03-13T07:28:03.060Z,100.00
2023-03-13T07:30:29.773Z,100.00
2023-03-13T07:32:56.402Z,100.00
2023-03-13T07:35:23.051Z,98.81
2023-03-13T07:37:49.746Z,94.31
2023-03-13T07:40:16.489Z,90.76
2023-03-13T07:42:43.082Z,90.14
2023-03-13T07:45:10.058Z,89.23
2023-03-13T07:47:36.841Z,85.90
2023-03-13T07:50:03.738Z,85.21
2023-03-13T07:52:30.344Z,83.68
2023-03-13T07:54:56.999Z,80.69
2023-03-13T07:57:23.991Z,79.15
2023-03-13T07:59:50.511Z,76.77
2023-03-13T08:02:17.744Z,73.63
2023-03-13T08:04:44.462Z,73.21
2023-03-13T08:07:11.979Z,72.87
2023-03-13T08:09:39.058Z,76.04
2023-03-13T08:12:06.421Z,75.69
2023-03-13T08:14:33.073Z,70.29
2023-03-13T08:16:59.787Z,69.09
2023-03-13T08:19:26.460Z,70.71
2023-03-13T08:21:53.029Z,74.73
2023-03-13T08:24:21.984Z,82.02
2023-03-13T08:26:48.761Z,88.58
2023-03-13T08:29:15.403Z,90.68
2023-03-13T08:31:48.038Z,94.82
2023-03-13T08:34:16.129Z,94.49
2023-03-13T08:36:43.046Z,93.62
2023-03-13T08:39:18.299Z,87.95
2023-03-13T08:41:45.521Z,88.56
2023-03-13T08:44:14.046Z,86.92
2023-03-13T08:46:41.020Z,87.35
2023-03-13T08:49:08.621Z,83.40
2023-03-13T08:51:36.242Z,83.30
2023-03-13T08:54:04.170Z,80.53
2023-03-13T08:56:31.755Z,81.95
2023-03-13T08:59:01.029Z,82.99
2023-03-13T09:01:33.473Z,78.98
2023-03-13T09:04:03.818Z,82.50
2023-03-13T09:06:30.717Z,80.21
2023-03-13T09:08:58.442Z,77.95
2023-03-13T09:11:25.712Z,74.18
2023-03-13T09:13:53.107Z,68.23
2023-03-13T09:16:22.932Z,65.72
2023-03-13T09:18:50.764Z,61.84
2023-03-13T09:21:22.864Z,59.37
2023-03-13T09:23:50.404Z,56.66
2023-03-13T09:26:20.002Z,54.95
2023-03-13T09:28:48.744Z,51.20
2023-03-13T09:31:17.932Z,51.43
2023-03-13T09:33:45.822Z,50.57
2023-03-13T09:36:13.160Z,50.59
2023-03-13T09:38:40.242Z,48.91
2023-03-13T09:41:24.022Z,48.74
2023-03-13T09:43:57.437Z,47.86
2023-03-13T09:46:39.763Z,46.88
2023-03-13T09:49:23.260Z,47.25
2023-03-13T09:51:56.518Z,48.03
2023-03-13T09:54:33.234Z,49.01
2023-03-13T09:57:11.962Z,47.55
2023-03-13T09:59:46.822Z,46.91
2023-03-13T10:02:20.206Z,48.21
2023-03-13T10:04:52.275Z,48.08
2023-03-13T10:07:20.937Z,47.94
2023-03-13T10:09:47.529Z,46.75
2023-03-13T10:12:21.480Z,46.43
2023-03-13T10:14:54.320Z,46.27
2023-03-13T10:17:38.419Z,43.97
2023-03-13T10:20:21.241Z,43.50
2023-03-13T10:22:52.677Z,43.59
2023-03-13T10:25:28.352Z,43.70
2023-03-13T10:27:55.496Z,45.20
2023-03-13T10:30:27.104Z,45.41
2023-03-13T10:32:58.366Z,45.31
2023-03-13T10:35:33.271Z,45.52
2023-03-13T10:38:04.650Z,44.61
2023-03-13T10:40:31.807Z,43.17
2023-03-13T10:43:22.538Z,43.94
2023-03-13T10:45:49.281Z,43.23
2023-03-13T10:48:20.997Z,43.06
2023-03-13T10:50:50.156Z,42.37
2023-03-13T10:53:25.820Z,42.08
2023-03-13T10:55:54.368Z,40.63
2023-03-13T10:58:37.354Z,41.16
2023-03-13T11:01:28.921Z,40.86
2023-03-13T11:03:57.215Z,40.99
2023-03-13T11:06:25.405Z,41.73
2023-03-13T11:09:03.309Z,41.74
2023-03-13T11:11:30.895Z,42.76
2023-03-13T11:14:14.944Z,41.94
2023-03-13T11:16:47.527Z,42.61
2023-03-13T11:19:14.115Z,42.16
2023-03-13T11:22:11.255Z,42.78
2023-03-13T11:25:18.715Z,43.09
2023-03-13T11:28:03.785Z,43.43
2023-03-13T11:30:53.311Z,42.38
2023-03-13T11:33:40.895Z,42.70
2023-03-13T11:36:19.298Z,42.76
2023-03-13T11:38:55.713Z,41.92
2023-03-13T11:41:34.166Z,43.21
2023-03-13T11:44:19.889Z,42.23
2023-03-13T11:47:23.376Z,39.34
2023-03-13T11:49:52.653Z,40.12
2023-03-13T11:52:34.195Z,40.10
2023-03-13T11:55:13.255Z,41.62
2023-03-13T11:58:01.422Z,41.78
2023-03-13T12:00:40.325Z,39.41
2023-03-13T12:03:28.203Z,40.45
2023-03-13T12:06:00.208Z,38.58
2023-03-13T12:08:35.983Z,39.03
2023-03-13T12:11:21.690Z,39.41
2023-03-13T12:13:59.586Z,40.00
2023-03-13T12:16:54.476Z,39.30
2023-03-13T12:19:30.667Z,41.07
2023-03-13T12:22:13.834Z,40.39
2023-03-13T12:24:50.345Z,41.47
2023-03-13T12:27:33.046Z,40.51
2023-03-13T12:30:05.810Z,39.40
2023-03-13T12:32:40.663Z,39.70
2023-03-13T12:35:46.082Z,37.66
2023-03-13T12:38:28.634Z,37.16
2023-03-13T12:41:27.498Z,36.52
2023-03-13T12:44:07.659Z,38.26
2023-03-13T12:46:44.831Z,36.95
2023-03-13T12:49:48.912Z,36.29
2023-03-13T12:52:21.903Z,35.69
2023-03-13T12:54:58.527Z,35.66
2023-03-13T12:57:46.540Z,35.69
2023-03-13T13:00:18.433Z,34.49
2023-03-13T13:02:45.651Z,34.81
2023-03-13T13:05:21.830Z,33.66
2023-03-13T13:07:56.149Z,33.26
2023-03-13T13:10:26.398Z,33.47
2023-03-13T13:13:14.855Z,34.04
2023-03-13T13:15:48.373Z,32.97
2023-03-13T13:18:24.189Z,33.28
2023-03-13T13:21:02.939Z,34.66
2023-03-13T13:23:53.857Z,34.11
2023-03-13T13:26:26.676Z,33.70
2023-03-13T13:28:54.801Z,34.53
2023-03-13T13:31:52.403Z,34.25
2023-03-13T13:34:55.905Z,36.61
2023-03-13T13:37:22.661Z,35.04
2023-03-13T13:39:52.511Z,34.23
2023-03-13T13:42:31.491Z,34.96
2023-03-13T13:45:05.653Z,34.00
2023-03-13T13:47:33.786Z,33.76
2023-03-13T13:50:01.260Z,33.73
2023-03-13T13:52:36.005Z,33.74
2023-03-13T13:55:23.595Z,33.06
2023-03-13T13:57:59.191Z,33.34
2023-03-13T14:00:29.101Z,33.22
2023-03-13T14:02:57.549Z,31.93
2023-03-13T14:05:30.431Z,32.01
2023-03-13T14:08:30.452Z,31.83
2023-03-13T14:11:06.311Z,32.44
2023-03-13T14:13:33.179Z,32.05
2023-03-13T14:16:24.909Z,31.64
2023-03-13T14:18:52.213Z,30.45
2023-03-13T14:21:25.641Z,30.87
2023-03-13T14:23:52.602Z,31.99
2023-03-13T14:26:20.897Z,30.85
2023-03-13T14:29:08.099Z,30.05
2023-03-13T14:31:36.581Z,31.34
2023-03-13T14:34:05.899Z,30.94
2023-03-13T14:36:46.301Z,31.68
2023-03-13T14:39:19.346Z,32.13
2023-03-13T14:41:48.532Z,32.72
2023-03-13T14:44:26.497Z,32.83
2023-03-13T14:46:56.991Z,33.43
2023-03-13T14:49:26.945Z,32.20
2023-03-13T14:52:03.174Z,33.39
2023-03-13T14:54:35.200Z,32.18
2023-03-13T14:57:17.826Z,32.52
2023-03-13T14:59:44.553Z,32.83
2023-03-13T15:02:24.184Z,34.65
2023-03-13T15:04:53.938Z,35.22
2023-03-13T15:07:21.472Z,36.16
2023-03-13T15:09:49.974Z,36.94
2023-03-13T15:12:22.615Z,38.34
2023-03-13T15:14:52.413Z,39.12
2023-03-13T15:17:25.040Z,39.78
2023-03-13T15:19:57.289Z,40.35
2023-03-13T15:22:42.063Z,41.40
2023-03-13T15:25:19.372Z,41.80
2023-03-13T15:27:46.795Z,41.52
2023-03-13T15:30:23.277Z,41.71
2023-03-13T15:32:50.285Z,41.92
2023-03-13T15:35:23.542Z,42.02
2023-03-13T15:37:50.322Z,42.26
2023-03-13T15:40:17.520Z,42.54
2023-03-13T15:42:44.355Z,43.25
2023-03-13T15:45:11.402Z,42.58
2023-03-13T15:47:38.285Z,42.76
2023-03-13T15:50:11.125Z,42.47
2023-03-13T15:52:37.918Z,42.62
2023-03-13T15:55:07.189Z,42.25
2023-03-13T15:57:42.596Z,41.90
2023-03-13T16:00:33.447Z,42.06
2023-03-13T16:03:00.502Z,43.29
2023-03-13T16:05:27.197Z,44.88
2023-03-13T16:07:53.890Z,46.17
2023-03-13T16:10:27.345Z,46.94
2023-03-13T16:12:55.261Z,47.91
2023-03-13T16:15:21.883Z,48.85
2023-03-13T16:17:48.430Z,50.01
2023-03-13T16:20:20.896Z,49.78
2023-03-13T16:22:48.190Z,50.69
2023-03-13T16:25:16.653Z,51.18
2023-03-13T16:27:43.214Z,50.12
2023-03-13T16:30:21.449Z,50.50
2023-03-13T16:32:48.235Z,51.63
2023-03-13T16:35:15.030Z,51.12
2023-03-13T16:37:41.776Z,52.67
2023-03-13T16:40:15.693Z,52.66
2023-03-13T16:42:42.522Z,51.49
2023-03-13T16:45:09.694Z,51.60
2023-03-13T16:47:36.544Z,51.25
2023-03-13T16:50:10.984Z,52.57
2023-03-13T16:52:37.512Z,53.25
2023-03-13T16:55:04.433Z,53.78
2023-03-13T16:57:31.389Z,53.91
2023-03-13T16:59:58.012Z,55.50
2023-03-13T17:02:24.671Z,55.85
2023-03-13T17:04:51.264Z,58.49
2023-03-13T17:07:24.338Z,58.53
2023-03-13T17:09:51.719Z,59.40
2023-03-13T17:12:19.142Z,59.62
2023-03-13T17:14:46.365Z,60.14
2023-03-13T17:17:19.697Z,62.10
2023-03-13T17:19:46.800Z,60.33
2023-03-13T17:22:15.624Z,60.96
2023-03-13T17:24:43.915Z,63.11
2023-03-13T17:27:13.681Z,63.66
2023-03-13T17:29:40.455Z,64.52
2023-03-13T17:32:08.416Z,66.00
2023-03-13T17:34:35.028Z,65.51
2023-03-13T17:37:04.707Z,67.67
2023-03-13T17:39:31.770Z,67.85
2023-03-13T17:42:00.258Z,67.62
2023-03-13T17:44:26.828Z,69.44
2023-03-13T17:46:53.464Z,68.69
2023-03-13T17:49:20.698Z,70.28
2023-03-13T17:51:49.887Z,74.26
2023-03-13T17:54:16.751Z,70.20
2023-03-13T17:56:44.009Z,70.05
2023-03-13T17:59:13.703Z,70.93
2023-03-13T18:01:41.257Z,71.00
2023-03-13T18:04:08.400Z,70.36
2023-03-13T18:06:39.394Z,71.83
2023-03-13T18:09:12.258Z,74.15
2023-03-13T18:11:39.029Z,74.60
2023-03-13T18:14:06.589Z,74.37
2023-03-13T18:16:48.156Z,73.60
2023-03-13T18:19:17.866Z,73.40
2023-03-13T18:21:45.710Z,75.25
2023-03-13T18:24:14.148Z,74.19
2023-03-13T18:26:42.722Z,73.07
2023-03-13T18:29:20.313Z,73.32
2023-03-13T18:31:48.093Z,73.00
2023-03-13T18:34:15.261Z,71.71
2023-03-13T18:36:42.725Z,72.71
2023-03-13T18:39:14.501Z,73.64
2023-03-13T18:41:41.331Z,75.98
2023-03-13T18:44:07.858Z,76.76
2023-03-13T18:46:34.795Z,77.70
2023-03-13T18:49:01.772Z,76.92
2023-03-13T18:51:28.636Z,77.61
2023-03-13T18:53:55.896Z,78.19
2023-03-13T18:56:26.229Z,80.13
2023-03-13T18:58:55.150Z,80.26
2023-03-13T19:01:24.276Z,81.05
2023-03-13T19:03:51.717Z,80.90
2023-03-13T19:06:35.768Z,82.00
2023-03-13T19:09:43.232Z,83.84
2023-03-13T19:12:12.110Z,83.62
2023-03-13T19:14:38.847Z,77.83
2023-03-13T19:17:07.114Z,73.98
2023-03-13T19:19:34.308Z,68.77
2023-03-13T19:22:01.164Z,72.45
2023-03-13T19:24:27.852Z,72.78
2023-03-13T19:26:58.849Z,72.30
2023-03-13T19:29:27.892Z,71.32
2023-03-13T19:31:54.815Z,72.89
2023-03-13T19:34:21.961Z,71.57
2023-03-13T19:36:49.589Z,69.33
2023-03-13T19:39:23.551Z,70.76
2023-03-13T19:41:50.584Z,70.88
2023-03-13T19:44:18.408Z,72.56
2023-03-13T19:46:45.804Z,72.96
2023-03-13T19:49:19.597Z,72.72
2023-03-13T19:51:47.053Z,72.64
2023-03-13T19:54:14.302Z,73.40
2023-03-13T19:56:43.735Z,73.02
2023-03-13T19:59:15.617Z,69.46
2023-03-13T20:01:42.510Z,70.76
2023-03-13T20:04:09.686Z,71.73
2023-03-13T20:06:37.454Z,72.38
2023-03-13T20:09:07.349Z,72.94
2023-03-13T20:11:34.139Z,72.93
2023-03-13T20:14:01.079Z,73.13
2023-03-13T20:16:30.140Z,74.54
2023-03-13T20:18:57.901Z,75.58
2023-03-13T20:21:29.048Z,76.49
2023-03-13T20:23:57.397Z,78.18
2023-03-13T20:26:25.007Z,78.90
2023-03-13T20:28:52.528Z,78.78
2023-03-13T20:31:22.321Z,78.69
2023-03-13T20:33:48.937Z,79.15
2023-03-13T20:36:19.213Z,80.31
2023-03-13T20:38:46.185Z,82.00
2023-03-13T20:41:13.077Z,84.25
2023-03-13T20:43:40.103Z,86.45
2023-03-13T20:46:09.579Z,89.17
2023-03-13T20:48:41.567Z,88.72
2023-03-13T20:51:09.174Z,89.50
2023-03-13T20:53:37.987Z,88.97
2023-03-13T20:56:07.186Z,86.98
2023-03-13T20:58:35.074Z,83.06
2023-03-13T21:01:03.001Z,83.24
2023-03-13T21:03:31.886Z,81.90
2023-03-13T21:05:58.484Z,81.65
2023-03-13T21:08:25.075Z,82.00
2023-03-13T21:10:51.758Z,82.88
2023-03-13T21:13:18.516Z,84.19
2023-03-13T21:15:45.071Z,85.80
2023-03-13T21:18:11.843Z,87.68
2023-03-13T21:20:39.308Z,86.99
2023-03-13T21:23:06.017Z,87.40
2023-03-13T21:25:32.740Z,88.36
2023-03-13T21:27:59.759Z,89.84
2023-03-13T21:30:26.414Z,91.25
2023-03-13T21:32:54.354Z,95.00
2023-03-13T21:35:21.030Z,96.40
2023-03-13T21:37:47.816Z,97.59
2023-03-13T21:40:14.959Z,99.30
2023-03-13T21:42:41.555Z,100.00
2023-03-13T21:45:09.148Z,100.00
2023-03-13T21:47:38.685Z,100.00
2023-03-13T21:50:08.380Z,100.00
2023-03-13T21:52:41.266Z,98.59
2023-03-13T21:55:11.583Z,88.90
2023-03-13T21:57:38.153Z,80.25
2023-03-13T22:00:08.344Z,82.40
2023-03-13T22:02:36.999Z,81.53
2023-03-13T22:05:04.774Z,85.61
2023-03-13T22:07:31.369Z,86.76
2023-03-13T22:09:58.209Z,87.49
2023-03-13T22:12:25.603Z,92.18
2023-03-13T22:14:53.009Z,97.30
2023-03-13T22:17:20.399Z,100.00
2023-03-13T22:19:47.302Z,100.00
2023-03-13T22:22:14.661Z,100.00
2023-03-13T22:24:41.678Z,100.00
2023-03-13T22:27:10.108Z,100.00
2023-03-13T22:29:36.650Z,100.00
2023-03-13T22:32:03.778Z,100.00
2023-03-13T22:34:30.445Z,100.00
2023-03-13T22:36:57.073Z,100.00
2023-03-13T22:39:23.800Z,100.00
2023-03-13T22:41:50.497Z,100.00
2023-03-13T22:44:17.080Z,100.00
2023-03-13T22:46:43.731Z,100.00
2023-03-13T22:49:10.320Z,100.00
2023-03-13T22:51:36.918Z,100.00
2023-03-13T22:54:03.717Z,100.00
2023-03-13T22:56:30.478Z,100.00
2023-03-13T22:58:57.388Z,100.00
2023-03-13T23:01:24.344Z,100.00
2023-03-13T23:03:50.901Z,100.00
2023-03-13T23:06:21.347Z,100.00
2023-03-13T23:08:49.080Z,100.00
2023-03-13T23:11:16.172Z,100.00
2023-03-13T23:13:42.731Z,100.00
2023-03-13T23:16:11.893Z,100.00
2023-03-13T23:18:39.344Z,100.00
2023-03-13T23:21:08.397Z,100.00
2023-03-13T23:23:35.564Z,100.00
2023-03-13T23:26:04.241Z,100.00
2023-03-13T23:28:31.180Z,100.00
2023-03-13T23:30:57.730Z,100.00
2023-03-13T23:33:24.316Z,100.00
2023-03-13T23:35:51.117Z,100.00
2023-03-13T23:38:20.615Z,100.00
2023-03-13T23:40:47.270Z,100.00
2023-03-13T23:43:14.177Z,100.00
2023-03-13T23:45:41.036Z,100.00
2023-03-13T23:48:07.673Z,100.00
2023-03-13T23:50:34.319Z,100.00
2023-03-13T23:53:00.961Z,100.00
2023-03-13T23:55:27.503Z,100.00
2023-03-13T23:57:54.164Z,100.00
